sensor_id;sensor_type;location;lat;lon;timestamp;P1;durP1;ratioP1;P2;durP2;ratioP2
14125;SDS011;7141;49.484;11.242;2023-05-10T00:00:07;5.37;;;3.13;;
14125;SDS011;7141;49.484;11.242;2023-05-10T00:02:34;5.10;;;3.50;;
14125;SDS011;7141;49.484;11.242;2023-05-10T00:05:00;5.90;;;3.30;;
14125;SDS011;7141;49.484;11.242;2023-05-10T00:07:26;6.17;;;3.97;;
14125;SDS011;7141;49.484;11.242;2023-05-10T00:09:52;4.00;;;3.60;;
14125;SDS011;7141;49.484;11.242;2023-05-10T00:12:17;4.53;;;3.50;;
14125;SDS011;7141;49.484;11.242;2023-05-10T00:14:43;4.87;;;3.70;;
14125;SDS011;7141;49.484;11.242;2023-05-10T00:17:10;4.17;;;3.53;;
14125;SDS011;7141;49.484;11.242;2023-05-10T00:19:36;7.03;;;4.03;;
14125;SDS011;7141;49.484;11.242;2023-05-10T00:22:02;5.60;;;3.57;;
14125;SDS011;7141;49.484;11.242;2023-05-10T00:24:28;4.53;;;3.57;;
14125;SDS011;7141;49.484;11.242;2023-05-10T00:26:54;5.03;;;4.03;;
14125;SDS011;7141;49.484;11.242;2023-05-10T00:29:19;7.47;;;3.80;;
14125;SDS011;7141;49.484;11.242;2023-05-10T00:31:45;4.37;;;3.80;;
14125;SDS011;7141;49.484;11.242;2023-05-10T00:34:11;3.93;;;3.37;;
14125;SDS011;7141;49.484;11.242;2023-05-10T00:36:37;4.03;;;3.63;;
14125;SDS011;7141;49.484;11.242;2023-05-10T00:39:03;6.70;;;3.90;;
14125;SDS011;7141;49.484;11.242;2023-05-10T00:41:29;4.13;;;3.70;;
14125;SDS011;7141;49.484;11.242;2023-05-10T00:43:58;4.30;;;3.80;;
14125;SDS011;7141;49.484;11.242;2023-05-10T00:46:25;4.30;;;3.80;;
14125;SDS011;7141;49.484;11.242;2023-05-10T00:48:51;4.50;;;4.10;;
14125;SDS011;7141;49.484;11.242;2023-05-10T00:51:18;6.00;;;3.60;;
14125;SDS011;7141;49.484;11.242;2023-05-10T00:53:45;5.40;;;4.13;;
14125;SDS011;7141;49.484;11.242;2023-05-10T00:56:11;6.70;;;3.70;;
14125;SDS011;7141;49.484;11.242;2023-05-10T00:58:37;7.27;;;4.57;;
14125;SDS011;7141;49.484;11.242;2023-05-10T01:01:04;5.37;;;4.40;;
14125;SDS011;7141;49.484;11.242;2023-05-10T01:03:31;4.47;;;4.07;;
14125;SDS011;7141;49.484;11.242;2023-05-10T01:05:57;5.17;;;4.33;;
14125;SDS011;7141;49.484;11.242;2023-05-10T01:08:24;5.40;;;4.30;;
14125;SDS011;7141;49.484;11.242;2023-05-10T01:10:50;5.43;;;4.80;;
14125;SDS011;7141;49.484;11.242;2023-05-10T01:13:25;6.53;;;4.30;;
14125;SDS011;7141;49.484;11.242;2023-05-10T01:15:53;7.73;;;4.80;;
14125;SDS011;7141;49.484;11.242;2023-05-10T01:18:19;5.27;;;4.67;;
14125;SDS011;7141;49.484;11.242;2023-05-10T01:20:46;5.27;;;4.57;;
14125;SDS011;7141;49.484;11.242;2023-05-10T01:28:39;6.53;;;5.70;;
14125;SDS011;7141;49.484;11.242;2023-05-10T01:46:17;7.43;;;6.60;;
14125;SDS011;7141;49.484;11.242;2023-05-10T01:48:51;7.00;;;6.30;;
14125;SDS011;7141;49.484;11.242;2023-05-10T01:51:25;9.47;;;6.90;;
14125;SDS011;7141;49.484;11.242;2023-05-10T01:53:52;7.63;;;6.60;;
14125;SDS011;7141;49.484;11.242;2023-05-10T01:56:20;7.27;;;6.57;;
14125;SDS011;7141;49.484;11.242;2023-05-10T01:58:48;8.87;;;6.83;;
14125;SDS011;7141;49.484;11.242;2023-05-10T02:01:14;8.57;;;7.37;;
14125;SDS011;7141;49.484;11.242;2023-05-10T02:03:41;8.73;;;6.57;;
14125;SDS011;7141;49.484;11.242;2023-05-10T02:06:08;9.13;;;7.57;;
14125;SDS011;7141;49.484;11.242;2023-05-10T02:08:36;9.40;;;7.80;;
14125;SDS011;7141;49.484;11.242;2023-05-10T02:11:02;11.17;;;7.70;;
14125;SDS011;7141;49.484;11.242;2023-05-10T02:13:29;9.17;;;8.00;;
14125;SDS011;7141;49.484;11.242;2023-05-10T02:15:55;9.47;;;8.03;;
14125;SDS011;7141;49.484;11.242;2023-05-10T02:18:22;8.57;;;7.47;;
14125;SDS011;7141;49.484;11.242;2023-05-10T02:20:49;8.40;;;7.60;;
14125;SDS011;7141;49.484;11.242;2023-05-10T02:23:15;11.27;;;7.40;;
14125;SDS011;7141;49.484;11.242;2023-05-10T02:25:43;11.23;;;7.83;;
14125;SDS011;7141;49.484;11.242;2023-05-10T02:28:09;8.23;;;7.43;;
14125;SDS011;7141;49.484;11.242;2023-05-10T02:30:36;11.03;;;8.63;;
14125;SDS011;7141;49.484;11.242;2023-05-10T02:33:03;10.23;;;8.30;;
14125;SDS011;7141;49.484;11.242;2023-05-10T02:35:29;8.40;;;7.40;;
14125;SDS011;7141;49.484;11.242;2023-05-10T02:37:58;11.47;;;7.73;;
14125;SDS011;7141;49.484;11.242;2023-05-10T02:40:24;10.27;;;7.83;;
14125;SDS011;7141;49.484;11.242;2023-05-10T02:42:52;8.60;;;7.50;;
14125;SDS011;7141;49.484;11.242;2023-05-10T02:45:19;11.43;;;8.00;;
14125;SDS011;7141;49.484;11.242;2023-05-10T02:47:46;9.00;;;7.57;;
14125;SDS011;7141;49.484;11.242;2023-05-10T02:50:12;8.10;;;7.23;;
14125;SDS011;7141;49.484;11.242;2023-05-10T02:52:46;10.07;;;8.23;;
14125;SDS011;7141;49.484;11.242;2023-05-10T02:55:14;9.30;;;8.37;;
14125;SDS011;7141;49.484;11.242;2023-05-10T02:57:41;10.90;;;8.47;;
14125;SDS011;7141;49.484;11.242;2023-05-10T03:00:09;9.80;;;8.27;;
14125;SDS011;7141;49.484;11.242;2023-05-10T03:02:35;9.27;;;8.13;;
14125;SDS011;7141;49.484;11.242;2023-05-10T03:05:01;8.80;;;7.90;;
14125;SDS011;7141;49.484;11.242;2023-05-10T03:07:28;8.73;;;7.67;;
14125;SDS011;7141;49.484;11.242;2023-05-10T03:09:54;11.47;;;8.60;;
14125;SDS011;7141;49.484;11.242;2023-05-10T03:15:22;9.30;;;7.60;;
14125;SDS011;7141;49.484;11.242;2023-05-10T03:18:11;9.37;;;8.33;;
14125;SDS011;7141;49.484;11.242;2023-05-10T03:20:41;8.23;;;7.23;;
14125;SDS011;7141;49.484;11.242;2023-05-10T03:23:12;8.73;;;7.83;;
14125;SDS011;7141;49.484;11.242;2023-05-10T03:25:38;11.83;;;9.37;;
14125;SDS011;7141;49.484;11.242;2023-05-10T03:28:05;8.60;;;7.63;;
14125;SDS011;7141;49.484;11.242;2023-05-10T03:30:31;8.97;;;7.47;;
14125;SDS011;7141;49.484;11.242;2023-05-10T03:32:58;8.63;;;7.63;;
14125;SDS011;7141;49.484;11.242;2023-05-10T03:35:29;14.47;;;9.03;;
14125;SDS011;7141;49.484;11.242;2023-05-10T03:37:55;8.60;;;6.93;;
14125;SDS011;7141;49.484;11.242;2023-05-10T03:40:21;7.67;;;6.87;;
14125;SDS011;7141;49.484;11.242;2023-05-10T03:42:47;9.17;;;6.97;;
14125;SDS011;7141;49.484;11.242;2023-05-10T03:45:13;9.87;;;6.93;;
14125;SDS011;7141;49.484;11.242;2023-05-10T03:47:40;9.97;;;6.83;;
14125;SDS011;7141;49.484;11.242;2023-05-10T03:50:06;8.40;;;6.87;;
14125;SDS011;7141;49.484;11.242;2023-05-10T03:52:32;9.90;;;7.23;;
14125;SDS011;7141;49.484;11.242;2023-05-10T03:54:58;10.57;;;7.53;;
14125;SDS011;7141;49.484;11.242;2023-05-10T03:57:24;9.07;;;6.70;;
14125;SDS011;7141;49.484;11.242;2023-05-10T03:59:50;5.73;;;5.23;;
14125;SDS011;7141;49.484;11.242;2023-05-10T04:02:16;5.90;;;5.30;;
14125;SDS011;7141;49.484;11.242;2023-05-10T04:04:42;6.13;;;3.83;;
14125;SDS011;7141;49.484;11.242;2023-05-10T04:07:08;4.20;;;2.90;;
14125;SDS011;7141;49.484;11.242;2023-05-10T04:09:35;3.63;;;2.87;;
14125;SDS011;7141;49.484;11.242;2023-05-10T04:12:01;3.70;;;2.77;;
14125;SDS011;7141;49.484;11.242;2023-05-10T04:14:27;3.10;;;2.13;;
14125;SDS011;7141;49.484;11.242;2023-05-10T04:16:53;2.47;;;1.80;;
14125;SDS011;7141;49.484;11.242;2023-05-10T04:19:20;2.43;;;1.90;;
14125;SDS011;7141;49.484;11.242;2023-05-10T04:21:46;2.60;;;1.80;;
14125;SDS011;7141;49.484;11.242;2023-05-10T04:24:12;1.60;;;1.50;;
14125;SDS011;7141;49.484;11.242;2023-05-10T04:26:38;1.67;;;1.57;;
14125;SDS011;7141;49.484;11.242;2023-05-10T04:29:04;1.97;;;1.77;;
14125;SDS011;7141;49.484;11.242;2023-05-10T04:31:30;1.87;;;1.43;;
14125;SDS011;7141;49.484;11.242;2023-05-10T04:33:55;1.40;;;1.30;;
14125;SDS011;7141;49.484;11.242;2023-05-10T04:36:21;2.07;;;1.40;;
14125;SDS011;7141;49.484;11.242;2023-05-10T04:38:48;3.57;;;1.33;;
14125;SDS011;7141;49.484;11.242;2023-05-10T04:41:14;2.53;;;1.40;;
14125;SDS011;7141;49.484;11.242;2023-05-10T04:43:40;1.47;;;1.37;;
14125;SDS011;7141;49.484;11.242;2023-05-10T04:46:06;1.90;;;1.53;;
14125;SDS011;7141;49.484;11.242;2023-05-10T04:48:32;2.70;;;1.43;;
14125;SDS011;7141;49.484;11.242;2023-05-10T04:50:58;1.40;;;1.20;;
14125;SDS011;7141;49.484;11.242;2023-05-10T04:53:24;1.50;;;1.40;;
14125;SDS011;7141;49.484;11.242;2023-05-10T04:55:50;2.20;;;1.30;;
14125;SDS011;7141;49.484;11.242;2023-05-10T04:58:16;1.53;;;1.43;;
14125;SDS011;7141;49.484;11.242;2023-05-10T05:00:42;1.40;;;1.30;;
14125;SDS011;7141;49.484;11.242;2023-05-10T05:03:09;2.10;;;1.43;;
14125;SDS011;7141;49.484;11.242;2023-05-10T05:05:35;1.20;;;1.10;;
14125;SDS011;7141;49.484;11.242;2023-05-10T05:08:01;1.30;;;1.20;;
14125;SDS011;7141;49.484;11.242;2023-05-10T05:10:27;1.43;;;1.13;;
14125;SDS011;7141;49.484;11.242;2023-05-10T05:12:53;1.20;;;1.10;;
14125;SDS011;7141;49.484;11.242;2023-05-10T05:15:19;1.77;;;1.10;;
14125;SDS011;7141;49.484;11.242;2023-05-10T05:17:45;1.57;;;1.20;;
14125;SDS011;7141;49.484;11.242;2023-05-10T05:20:11;1.47;;;1.20;;
14125;SDS011;7141;49.484;11.242;2023-05-10T05:22:37;1.47;;;1.07;;
14125;SDS011;7141;49.484;11.242;2023-05-10T05:25:03;2.57;;;1.03;;
14125;SDS011;7141;49.484;11.242;2023-05-10T05:27:30;1.80;;;1.23;;
14125;SDS011;7141;49.484;11.242;2023-05-10T05:29:56;1.10;;;1.00;;
14125;SDS011;7141;49.484;11.242;2023-05-10T05:32:23;1.80;;;1.63;;
14125;SDS011;7141;49.484;11.242;2023-05-10T05:34:49;1.10;;;1.00;;
14125;SDS011;7141;49.484;11.242;2023-05-10T05:37:16;1.87;;;0.90;;
14125;SDS011;7141;49.484;11.242;2023-05-10T05:39:42;1.30;;;1.20;;
14125;SDS011;7141;49.484;11.242;2023-05-10T05:42:08;4.10;;;1.20;;
14125;SDS011;7141;49.484;11.242;2023-05-10T05:44:34;1.20;;;1.10;;
14125;SDS011;7141;49.484;11.242;2023-05-10T05:47:00;1.47;;;1.07;;
14125;SDS011;7141;49.484;11.242;2023-05-10T05:49:26;1.90;;;1.17;;
14125;SDS011;7141;49.484;11.242;2023-05-10T05:51:52;1.03;;;1.03;;
14125;SDS011;7141;49.484;11.242;2023-05-10T05:54:18;1.47;;;1.07;;
14125;SDS011;7141;49.484;11.242;2023-05-10T05:56:44;3.30;;;1.10;;
14125;SDS011;7141;49.484;11.242;2023-05-10T05:59:10;1.43;;;1.10;;
14125;SDS011;7141;49.484;11.242;2023-05-10T06:01:37;0.90;;;0.90;;
14125;SDS011;7141;49.484;11.242;2023-05-10T06:04:03;1.17;;;1.03;;
14125;SDS011;7141;49.484;11.242;2023-05-10T06:06:29;1.63;;;1.30;;
14125;SDS011;7141;49.484;11.242;2023-05-10T06:08:55;0.97;;;0.90;;
14125;SDS011;7141;49.484;11.242;2023-05-10T06:11:21;1.40;;;1.00;;
14125;SDS011;7141;49.484;11.242;2023-05-10T06:13:47;2.30;;;1.10;;
14125;SDS011;7141;49.484;11.242;2023-05-10T06:16:13;1.10;;;1.10;;
14125;SDS011;7141;49.484;11.242;2023-05-10T06:18:39;1.87;;;1.07;;
14125;SDS011;7141;49.484;11.242;2023-05-10T06:21:06;1.07;;;0.97;;
14125;SDS011;7141;49.484;11.242;2023-05-10T06:23:32;1.50;;;1.40;;
14125;SDS011;7141;49.484;11.242;2023-05-10T06:25:58;1.30;;;1.20;;
14125;SDS011;7141;49.484;11.242;2023-05-10T06:28:23;1.00;;;1.00;;
14125;SDS011;7141;49.484;11.242;2023-05-10T06:30:49;1.10;;;1.00;;
14125;SDS011;7141;49.484;11.242;2023-05-10T06:33:15;2.07;;;1.27;;
14125;SDS011;7141;49.484;11.242;2023-05-10T06:35:41;2.17;;;1.50;;
14125;SDS011;7141;49.484;11.242;2023-05-10T06:38:07;2.03;;;1.20;;
14125;SDS011;7141;49.484;11.242;2023-05-10T06:40:33;3.33;;;1.20;;
14125;SDS011;7141;49.484;11.242;2023-05-10T06:43:00;2.67;;;1.33;;
14125;SDS011;7141;49.484;11.242;2023-05-10T06:45:26;2.40;;;1.20;;
14125;SDS011;7141;49.484;11.242;2023-05-10T06:47:52;1.20;;;1.10;;
14125;SDS011;7141;49.484;11.242;2023-05-10T06:50:18;1.40;;;1.30;;
14125;SDS011;7141;49.484;11.242;2023-05-10T06:52:44;1.30;;;1.20;;
14125;SDS011;7141;49.484;11.242;2023-05-10T06:55:10;1.30;;;1.20;;
14125;SDS011;7141;49.484;11.242;2023-05-10T06:57:36;2.10;;;1.50;;
14125;SDS011;7141;49.484;11.242;2023-05-10T07:00:03;2.67;;;1.17;;
14125;SDS011;7141;49.484;11.242;2023-05-10T07:02:29;1.37;;;1.23;;
14125;SDS011;7141;49.484;11.242;2023-05-10T07:04:55;1.70;;;1.30;;
14125;SDS011;7141;49.484;11.242;2023-05-10T07:07:22;1.77;;;1.23;;
14125;SDS011;7141;49.484;11.242;2023-05-10T07:09:48;1.87;;;1.30;;
14125;SDS011;7141;49.484;11.242;2023-05-10T07:12:14;1.30;;;1.20;;
14125;SDS011;7141;49.484;11.242;2023-05-10T07:14:41;1.90;;;1.40;;
14125;SDS011;7141;49.484;11.242;2023-05-10T07:17:06;3.73;;;1.67;;
14125;SDS011;7141;49.484;11.242;2023-05-10T07:19:33;1.30;;;1.20;;
14125;SDS011;7141;49.484;11.242;2023-05-10T07:21:59;1.90;;;1.40;;
14125;SDS011;7141;49.484;11.242;2023-05-10T07:24:25;0.97;;;0.97;;
14125;SDS011;7141;49.484;11.242;2023-05-10T07:26:51;2.53;;;1.30;;
14125;SDS011;7141;49.484;11.242;2023-05-10T07:29:17;1.07;;;1.00;;
14125;SDS011;7141;49.484;11.242;2023-05-10T07:31:42;1.30;;;1.20;;
14125;SDS011;7141;49.484;11.242;2023-05-10T07:34:08;1.23;;;1.13;;
14125;SDS011;7141;49.484;11.242;2023-05-10T07:36:35;1.43;;;1.20;;
14125;SDS011;7141;49.484;11.242;2023-05-10T07:39:01;3.53;;;1.10;;
14125;SDS011;7141;49.484;11.242;2023-05-10T07:41:27;2.90;;;1.17;;
14125;SDS011;7141;49.484;11.242;2023-05-10T07:43:53;2.40;;;1.00;;
14125;SDS011;7141;49.484;11.242;2023-05-10T07:46:19;2.80;;;0.90;;
14125;SDS011;7141;49.484;11.242;2023-05-10T07:48:45;1.10;;;1.00;;
14125;SDS011;7141;49.484;11.242;2023-05-10T07:51:11;1.23;;;1.00;;
14125;SDS011;7141;49.484;11.242;2023-05-10T07:53:38;0.83;;;0.83;;
14125;SDS011;7141;49.484;11.242;2023-05-10T07:58:50;3.47;;;1.03;;
14125;SDS011;7141;49.484;11.242;2023-05-10T08:01:16;2.37;;;1.07;;
14125;SDS011;7141;49.484;11.242;2023-05-10T08:03:42;1.00;;;1.00;;
14125;SDS011;7141;49.484;11.242;2023-05-10T08:06:08;3.20;;;1.10;;
14125;SDS011;7141;49.484;11.242;2023-05-10T08:08:34;1.07;;;0.90;;
14125;SDS011;7141;49.484;11.242;2023-05-10T08:11:00;2.03;;;1.00;;
14125;SDS011;7141;49.484;11.242;2023-05-10T08:13:25;1.53;;;1.17;;
14125;SDS011;7141;49.484;11.242;2023-05-10T08:15:52;1.77;;;1.10;;
14125;SDS011;7141;49.484;11.242;2023-05-10T08:18:18;6.70;;;1.77;;
14125;SDS011;7141;49.484;11.242;2023-05-10T08:20:44;1.30;;;1.03;;
14125;SDS011;7141;49.484;11.242;2023-05-10T08:23:12;0.93;;;0.93;;
14125;SDS011;7141;49.484;11.242;2023-05-10T08:25:38;1.00;;;0.90;;
14125;SDS011;7141;49.484;11.242;2023-05-10T08:28:04;1.47;;;1.00;;
14125;SDS011;7141;49.484;11.242;2023-05-10T08:30:30;1.33;;;0.90;;
14125;SDS011;7141;49.484;11.242;2023-05-10T08:32:56;1.47;;;0.97;;
14125;SDS011;7141;49.484;11.242;2023-05-10T08:35:22;1.80;;;1.10;;
14125;SDS011;7141;49.484;11.242;2023-05-10T08:37:49;1.33;;;0.90;;
14125;SDS011;7141;49.484;11.242;2023-05-10T08:40:15;1.17;;;1.00;;
14125;SDS011;7141;49.484;11.242;2023-05-10T08:42:43;1.30;;;1.00;;
14125;SDS011;7141;49.484;11.242;2023-05-10T08:45:10;1.63;;;1.40;;
14125;SDS011;7141;49.484;11.242;2023-05-10T08:47:36;1.57;;;1.23;;
14125;SDS011;7141;49.484;11.242;2023-05-10T08:50:03;3.30;;;1.30;;
14125;SDS011;7141;49.484;11.242;2023-05-10T08:52:29;2.67;;;1.50;;
14125;SDS011;7141;49.484;11.242;2023-05-10T08:54:56;2.53;;;1.20;;
14125;SDS011;7141;49.484;11.242;2023-05-10T08:57:22;1.63;;;1.40;;
14125;SDS011;7141;49.484;11.242;2023-05-10T08:59:48;1.63;;;1.53;;
14125;SDS011;7141;49.484;11.242;2023-05-10T09:02:14;4.30;;;1.67;;
14125;SDS011;7141;49.484;11.242;2023-05-10T09:04:40;1.63;;;1.30;;
14125;SDS011;7141;49.484;11.242;2023-05-10T09:07:06;1.57;;;1.47;;
14125;SDS011;7141;49.484;11.242;2023-05-10T09:09:33;1.33;;;1.10;;
14125;SDS011;7141;49.484;11.242;2023-05-10T09:11:59;1.37;;;1.27;;
14125;SDS011;7141;49.484;11.242;2023-05-10T09:14:25;1.50;;;1.40;;
14125;SDS011;7141;49.484;11.242;2023-05-10T09:16:51;2.83;;;1.20;;
14125;SDS011;7141;49.484;11.242;2023-05-10T09:19:19;1.80;;;1.40;;
14125;SDS011;7141;49.484;11.242;2023-05-10T09:21:45;1.40;;;1.30;;
14125;SDS011;7141;49.484;11.242;2023-05-10T09:24:11;2.73;;;1.17;;
14125;SDS011;7141;49.484;11.242;2023-05-10T09:26:47;1.10;;;1.10;;
14125;SDS011;7141;49.484;11.242;2023-05-10T09:29:13;1.23;;;1.13;;
14125;SDS011;7141;49.484;11.242;2023-05-10T09:31:43;1.47;;;1.30;;
14125;SDS011;7141;49.484;11.242;2023-05-10T09:34:11;3.37;;;1.50;;
14125;SDS011;7141;49.484;11.242;2023-05-10T09:36:55;1.67;;;1.40;;
14125;SDS011;7141;49.484;11.242;2023-05-10T09:39:39;1.50;;;1.23;;
14125;SDS011;7141;49.484;11.242;2023-05-10T09:42:07;1.30;;;1.20;;
14125;SDS011;7141;49.484;11.242;2023-05-10T09:44:34;3.97;;;1.57;;
14125;SDS011;7141;49.484;11.242;2023-05-10T09:47:00;3.03;;;1.50;;
14125;SDS011;7141;49.484;11.242;2023-05-10T09:49:26;1.40;;;1.30;;
14125;SDS011;7141;49.484;11.242;2023-05-10T09:52:02;1.70;;;1.60;;
14125;SDS011;7141;49.484;11.242;2023-05-10T09:54:29;2.43;;;1.60;;
14125;SDS011;7141;49.484;11.242;2023-05-10T09:56:55;2.60;;;1.90;;
14125;SDS011;7141;49.484;11.242;2023-05-10T09:59:21;2.50;;;1.87;;
14125;SDS011;7141;49.484;11.242;2023-05-10T10:01:50;2.37;;;2.03;;
14125;SDS011;7141;49.484;11.242;2023-05-10T10:04:16;3.33;;;2.20;;
14125;SDS011;7141;49.484;11.242;2023-05-10T10:06:42;3.37;;;2.10;;
14125;SDS011;7141;49.484;11.242;2023-05-10T10:09:09;3.90;;;2.33;;
14125;SDS011;7141;49.484;11.242;2023-05-10T10:11:35;3.23;;;2.10;;
14125;SDS011;7141;49.484;11.242;2023-05-10T10:14:01;2.53;;;2.00;;
14125;SDS011;7141;49.484;11.242;2023-05-10T10:16:28;4.50;;;2.10;;
14125;SDS011;7141;49.484;11.242;2023-05-10T10:18:55;5.60;;;2.20;;
14125;SDS011;7141;49.484;11.242;2023-05-10T10:21:21;2.00;;;1.67;;
14125;SDS011;7141;49.484;11.242;2023-05-10T10:23:48;2.30;;;1.90;;
14125;SDS011;7141;49.484;11.242;2023-05-10T10:26:14;2.67;;;2.07;;
14125;SDS011;7141;49.484;11.242;2023-05-10T10:31:55;3.90;;;2.00;;
14125;SDS011;7141;49.484;11.242;2023-05-10T10:34:03;4.30;;;2.13;;
14125;SDS011;7141;49.484;11.242;2023-05-10T10:36:32;2.83;;;2.07;;
14125;SDS011;7141;49.484;11.242;2023-05-10T10:39:01;3.60;;;2.20;;
14125;SDS011;7141;49.484;11.242;2023-05-10T10:41:30;3.30;;;1.80;;
14125;SDS011;7141;49.484;11.242;2023-05-10T10:46:58;2.83;;;2.37;;
14125;SDS011;7141;49.484;11.242;2023-05-10T10:49:24;2.67;;;2.40;;
14125;SDS011;7141;49.484;11.242;2023-05-10T10:54:35;3.33;;;2.20;;
14125;SDS011;7141;49.484;11.242;2023-05-10T10:57:17;4.83;;;2.30;;
14125;SDS011;7141;49.484;11.242;2023-05-10T10:59:43;2.83;;;2.10;;
14125;SDS011;7141;49.484;11.242;2023-05-10T11:02:10;2.43;;;2.13;;
14125;SDS011;7141;49.484;11.242;2023-05-10T11:04:56;2.83;;;2.47;;
14125;SDS011;7141;49.484;11.242;2023-05-10T11:07:22;2.97;;;2.13;;
14125;SDS011;7141;49.484;11.242;2023-05-10T11:09:48;3.40;;;2.20;;
14125;SDS011;7141;49.484;11.242;2023-05-10T11:12:14;3.47;;;2.03;;
14125;SDS011;7141;49.484;11.242;2023-05-10T11:14:40;5.23;;;2.27;;
14125;SDS011;7141;49.484;11.242;2023-05-10T11:17:22;2.13;;;1.90;;
14125;SDS011;7141;49.484;11.242;2023-05-10T11:20:07;2.87;;;1.80;;
14125;SDS011;7141;49.484;11.242;2023-05-10T11:22:50;4.47;;;2.00;;
14125;SDS011;7141;49.484;11.242;2023-05-10T11:25:16;2.90;;;1.83;;
14125;SDS011;7141;49.484;11.242;2023-05-10T11:27:42;2.53;;;1.80;;
14125;SDS011;7141;49.484;11.242;2023-05-10T11:30:09;2.50;;;1.80;;
14125;SDS011;7141;49.484;11.242;2023-05-10T11:32:37;2.10;;;1.67;;
14125;SDS011;7141;49.484;11.242;2023-05-10T11:35:09;3.80;;;2.00;;
14125;SDS011;7141;49.484;11.242;2023-05-10T11:37:38;2.67;;;1.80;;
14125;SDS011;7141;49.484;11.242;2023-05-10T11:40:08;4.33;;;1.50;;
14125;SDS011;7141;49.484;11.242;2023-05-10T11:42:36;3.07;;;1.63;;
14125;SDS011;7141;49.484;11.242;2023-05-10T11:45:03;2.67;;;1.70;;
14125;SDS011;7141;49.484;11.242;2023-05-10T11:47:29;2.43;;;1.80;;
14125;SDS011;7141;49.484;11.242;2023-05-10T11:49:55;3.83;;;1.80;;
14125;SDS011;7141;49.484;11.242;2023-05-10T11:52:21;3.20;;;1.80;;
14125;SDS011;7141;49.484;11.242;2023-05-10T11:54:54;3.37;;;1.60;;
14125;SDS011;7141;49.484;11.242;2023-05-10T11:57:20;2.40;;;1.60;;
14125;SDS011;7141;49.484;11.242;2023-05-10T11:59:46;3.30;;;1.90;;
14125;SDS011;7141;49.484;11.242;2023-05-10T12:02:13;3.47;;;2.30;;
14125;SDS011;7141;49.484;11.242;2023-05-10T12:04:39;2.67;;;1.80;;
14125;SDS011;7141;49.484;11.242;2023-05-10T12:07:06;2.90;;;2.00;;
14125;SDS011;7141;49.484;11.242;2023-05-10T12:09:32;3.20;;;2.10;;
14125;SDS011;7141;49.484;11.242;2023-05-10T12:11:57;1.90;;;1.63;;
14125;SDS011;7141;49.484;11.242;2023-05-10T12:14:23;2.03;;;1.83;;
14125;SDS011;7141;49.484;11.242;2023-05-10T12:16:49;1.97;;;1.70;;
14125;SDS011;7141;49.484;11.242;2023-05-10T12:19:19;2.77;;;1.83;;
14125;SDS011;7141;49.484;11.242;2023-05-10T12:21:46;1.67;;;1.57;;
14125;SDS011;7141;49.484;11.242;2023-05-10T12:24:12;1.50;;;1.40;;
14125;SDS011;7141;49.484;11.242;2023-05-10T12:26:41;2.73;;;1.47;;
14125;SDS011;7141;49.484;11.242;2023-05-10T12:29:17;2.33;;;1.40;;
14125;SDS011;7141;49.484;11.242;2023-05-10T12:31:53;2.60;;;1.47;;
14125;SDS011;7141;49.484;11.242;2023-05-10T12:34:23;2.20;;;1.47;;
14125;SDS011;7141;49.484;11.242;2023-05-10T12:36:53;2.60;;;1.60;;
14125;SDS011;7141;49.484;11.242;2023-05-10T12:39:19;2.77;;;1.43;;
14125;SDS011;7141;49.484;11.242;2023-05-10T12:41:45;2.77;;;1.50;;
14125;SDS011;7141;49.484;11.242;2023-05-10T12:44:11;1.53;;;1.43;;
14125;SDS011;7141;49.484;11.242;2023-05-10T12:46:37;1.40;;;1.30;;
14125;SDS011;7141;49.484;11.242;2023-05-10T12:49:03;2.27;;;1.40;;
14125;SDS011;7141;49.484;11.242;2023-05-10T12:51:29;2.30;;;1.53;;
14125;SDS011;7141;49.484;11.242;2023-05-10T12:53:56;1.53;;;1.43;;
14125;SDS011;7141;49.484;11.242;2023-05-10T12:56:22;6.03;;;1.60;;
14125;SDS011;7141;49.484;11.242;2023-05-10T12:58:48;1.90;;;1.50;;
14125;SDS011;7141;49.484;11.242;2023-05-10T13:01:14;2.00;;;1.37;;
14125;SDS011;7141;49.484;11.242;2023-05-10T13:03:40;1.33;;;1.23;;
14125;SDS011;7141;49.484;11.242;2023-05-10T13:06:08;2.87;;;1.40;;
14125;SDS011;7141;49.484;11.242;2023-05-10T13:08:34;2.27;;;1.50;;
14125;SDS011;7141;49.484;11.242;2023-05-10T13:11:00;3.27;;;1.60;;
14125;SDS011;7141;49.484;11.242;2023-05-10T13:13:26;3.57;;;1.53;;
14125;SDS011;7141;49.484;11.242;2023-05-10T13:15:52;1.97;;;1.20;;
14125;SDS011;7141;49.484;11.242;2023-05-10T13:18:18;1.30;;;1.13;;
14125;SDS011;7141;49.484;11.242;2023-05-10T13:20:45;5.37;;;1.20;;
14125;SDS011;7141;49.484;11.242;2023-05-10T13:23:11;2.13;;;1.30;;
14125;SDS011;7141;49.484;11.242;2023-05-10T13:25:37;2.33;;;1.30;;
14125;SDS011;7141;49.484;11.242;2023-05-10T13:28:03;1.50;;;1.40;;
14125;SDS011;7141;49.484;11.242;2023-05-10T13:30:29;4.53;;;1.50;;
14125;SDS011;7141;49.484;11.242;2023-05-10T13:32:55;2.07;;;1.60;;
14125;SDS011;7141;49.484;11.242;2023-05-10T13:35:21;2.60;;;1.53;;
14125;SDS011;7141;49.484;11.242;2023-05-10T13:37:47;3.67;;;1.47;;
14125;SDS011;7141;49.484;11.242;2023-05-10T13:40:13;2.27;;;1.20;;
14125;SDS011;7141;49.484;11.242;2023-05-10T13:42:40;3.07;;;1.60;;
14125;SDS011;7141;49.484;11.242;2023-05-10T13:45:06;1.80;;;1.40;;
14125;SDS011;7141;49.484;11.242;2023-05-10T13:47:32;2.87;;;1.50;;
14125;SDS011;7141;49.484;11.242;2023-05-10T13:49:58;2.13;;;1.40;;
14125;SDS011;7141;49.484;11.242;2023-05-10T13:52:26;2.23;;;1.23;;
14125;SDS011;7141;49.484;11.242;2023-05-10T13:54:52;4.10;;;1.33;;
14125;SDS011;7141;49.484;11.242;2023-05-10T13:57:20;0.97;;;0.93;;
14125;SDS011;7141;49.484;11.242;2023-05-10T13:59:46;1.20;;;1.10;;
14125;SDS011;7141;49.484;11.242;2023-05-10T14:02:12;2.17;;;0.97;;
14125;SDS011;7141;49.484;11.242;2023-05-10T14:04:38;0.90;;;0.90;;
14125;SDS011;7141;49.484;11.242;2023-05-10T14:07:04;0.87;;;0.80;;
14125;SDS011;7141;49.484;11.242;2023-05-10T14:09:30;1.23;;;0.83;;
14125;SDS011;7141;49.484;11.242;2023-05-10T14:11:56;1.00;;;1.00;;
14125;SDS011;7141;49.484;11.242;2023-05-10T14:14:22;1.00;;;0.90;;
14125;SDS011;7141;49.484;11.242;2023-05-10T14:16:48;1.20;;;0.93;;
14125;SDS011;7141;49.484;11.242;2023-05-10T14:19:14;5.37;;;1.10;;
14125;SDS011;7141;49.484;11.242;2023-05-10T14:21:40;1.60;;;1.20;;
14125;SDS011;7141;49.484;11.242;2023-05-10T14:24:06;2.03;;;1.10;;
14125;SDS011;7141;49.484;11.242;2023-05-10T14:26:32;1.30;;;1.10;;
14125;SDS011;7141;49.484;11.242;2023-05-10T14:28:59;1.40;;;1.17;;
14125;SDS011;7141;49.484;11.242;2023-05-10T14:31:25;1.10;;;1.03;;
14125;SDS011;7141;49.484;11.242;2023-05-10T14:33:51;2.10;;;1.30;;
14125;SDS011;7141;49.484;11.242;2023-05-10T14:36:17;2.20;;;1.13;;
14125;SDS011;7141;49.484;11.242;2023-05-10T14:38:43;1.10;;;1.00;;
14125;SDS011;7141;49.484;11.242;2023-05-10T14:41:09;1.30;;;1.13;;
14125;SDS011;7141;49.484;11.242;2023-05-10T14:43:39;1.30;;;1.20;;
14125;SDS011;7141;49.484;11.242;2023-05-10T14:46:05;2.70;;;1.20;;
14125;SDS011;7141;49.484;11.242;2023-05-10T14:48:31;3.17;;;1.70;;
14125;SDS011;7141;49.484;11.242;2023-05-10T14:50:57;2.00;;;1.50;;
14125;SDS011;7141;49.484;11.242;2023-05-10T14:53:23;1.33;;;1.10;;
14125;SDS011;7141;49.484;11.242;2023-05-10T14:55:49;1.13;;;0.90;;
14125;SDS011;7141;49.484;11.242;2023-05-10T14:58:15;0.97;;;0.93;;
14125;SDS011;7141;49.484;11.242;2023-05-10T15:00:41;2.50;;;0.90;;
14125;SDS011;7141;49.484;11.242;2023-05-10T15:03:08;1.97;;;1.10;;
14125;SDS011;7141;49.484;11.242;2023-05-10T15:05:34;1.20;;;1.10;;
14125;SDS011;7141;49.484;11.242;2023-05-10T15:08:02;7.33;;;4.83;;
14125;SDS011;7141;49.484;11.242;2023-05-10T15:10:28;2.67;;;2.30;;
14125;SDS011;7141;49.484;11.242;2023-05-10T15:12:54;4.33;;;3.00;;
14125;SDS011;7141;49.484;11.242;2023-05-10T15:15:20;2.97;;;1.73;;
14125;SDS011;7141;49.484;11.242;2023-05-10T15:17:47;1.87;;;1.37;;
14125;SDS011;7141;49.484;11.242;2023-05-10T15:20:13;3.50;;;1.60;;